createdAt,value
2022-09-18T00:01:43.336Z,5.78
2022-09-18T00:04:14.990Z,5.97
2022-09-18T00:06:45.981Z,6.57
2022-09-18T00:09:17.108Z,7.28
2022-09-18T00:11:49.405Z,5.57
2022-09-18T00:14:23.185Z,7.50
2022-09-18T00:16:52.076Z,6.68
2022-09-18T00:19:20.845Z,7.28
2022-09-18T00:21:52.537Z,13.10
2022-09-18T00:24:24.271Z,7.32
2022-09-18T00:26:52.888Z,6.03
2022-09-18T00:29:21.832Z,7.70
2022-09-18T00:31:50.549Z,6.03
2022-09-18T00:34:19.195Z,8.15
2022-09-18T00:36:48.219Z,7.13
2022-09-18T00:39:16.886Z,7.53
2022-09-18T00:41:47.241Z,7.40
2022-09-18T00:44:37.454Z,7.60
2022-09-18T00:47:27.396Z,6.53
2022-09-18T00:50:04.609Z,7.00
2022-09-18T00:52:46.633Z,7.13
2022-09-18T00:55:17.296Z,8.98
2022-09-18T00:57:52.643Z,6.40
2022-09-18T01:00:22.117Z,6.30
2022-09-18T01:02:51.707Z,6.85
2022-09-18T01:05:34.510Z,7.50
2022-09-18T01:08:22.481Z,7.13
2022-09-18T01:11:12.308Z,9.50
2022-09-18T01:13:55.539Z,7.75
2022-09-18T01:16:38.694Z,8.10
2022-09-18T01:19:26.385Z,9.00
2022-09-18T01:22:17.487Z,9.07
2022-09-18T01:25:08.428Z,7.72
2022-09-18T01:27:53.225Z,10.43
2022-09-18T01:35:09.780Z,7.05
2022-09-18T01:37:54.146Z,7.78
2022-09-18T01:40:30.030Z,10.45
2022-09-18T01:43:06.287Z,6.63
2022-09-18T01:45:43.011Z,11.38
2022-09-18T01:48:21.033Z,8.90
2022-09-18T01:50:57.165Z,8.95
2022-09-18T01:53:33.803Z,8.85
2022-09-18T01:56:09.540Z,11.23
2022-09-18T01:58:40.495Z,9.48
2022-09-18T02:01:15.773Z,8.93
2022-09-18T02:03:52.046Z,12.68
2022-09-18T02:06:28.929Z,9.07
2022-09-18T02:09:01.209Z,13.68
2022-09-18T02:11:33.821Z,11.95
2022-09-18T02:14:09.853Z,8.13
2022-09-18T02:17:04.381Z,11.75
2022-09-18T02:19:43.333Z,9.38
2022-09-18T02:22:17.466Z,11.73
2022-09-18T02:24:53.147Z,9.13
2022-09-18T02:27:25.661Z,10.55
2022-09-18T02:29:57.830Z,8.55
2022-09-18T02:32:26.472Z,8.80
2022-09-18T02:34:55.197Z,13.65
2022-09-18T02:37:37.309Z,12.13
2022-09-18T02:40:23.341Z,11.07
2022-09-18T02:43:19.470Z,13.35
2022-09-18T02:45:59.749Z,12.35
2022-09-18T02:49:04.278Z,10.98
2022-09-18T02:51:44.633Z,9.60
2022-09-18T02:54:23.665Z,8.70
2022-09-18T02:57:00.537Z,13.73
2022-09-18T02:59:37.521Z,10.60
2022-09-18T03:02:08.974Z,16.33
2022-09-18T03:04:40.587Z,11.88
2022-09-18T03:07:17.683Z,15.18
2022-09-18T03:09:48.764Z,12.98
2022-09-18T03:12:18.149Z,10.98
2022-09-18T03:14:50.092Z,13.93
2022-09-18T03:17:20.565Z,11.95
2022-09-18T03:19:49.280Z,14.80
2022-09-18T03:22:18.348Z,13.00
2022-09-18T03:24:47.000Z,16.38
2022-09-18T03:27:18.872Z,13.57
2022-09-18T03:29:47.938Z,13.38
2022-09-18T03:32:20.094Z,12.05
2022-09-18T03:34:51.985Z,10.98
2022-09-18T03:37:20.624Z,14.93
2022-09-18T03:39:49.338Z,10.57
2022-09-18T03:42:18.156Z,10.77
2022-09-18T03:44:47.034Z,11.55
2022-09-18T03:47:22.588Z,10.90
2022-09-18T03:49:51.240Z,13.23
2022-09-18T03:52:21.679Z,14.52
2022-09-18T03:54:56.012Z,15.85
2022-09-18T03:57:43.462Z,10.52
2022-09-18T04:00:42.148Z,9.48
2022-09-18T04:03:20.270Z,12.02
2022-09-18T04:06:08.053Z,11.57
2022-09-18T04:09:06.137Z,10.02
2022-09-18T04:11:40.972Z,9.90
2022-09-18T04:14:10.135Z,12.60
2022-09-18T04:16:39.334Z,9.52
2022-09-18T04:19:11.235Z,8.68
2022-09-18T04:21:40.974Z,10.20
2022-09-18T04:24:09.569Z,8.85
2022-09-18T04:26:38.748Z,8.18
2022-09-18T04:29:07.652Z,8.05
2022-09-18T04:31:37.835Z,9.55
2022-09-18T04:34:12.686Z,10.25
2022-09-18T04:36:41.325Z,10.00
2022-09-18T04:39:10.934Z,11.50
2022-09-18T04:41:39.921Z,9.43
2022-09-18T04:44:08.666Z,9.52
2022-09-18T04:46:37.397Z,11.57
2022-09-18T04:49:06.474Z,7.43
2022-09-18T04:51:37.360Z,10.52
2022-09-18T04:54:07.500Z,14.32
2022-09-18T04:56:40.867Z,12.88
2022-09-18T04:59:09.865Z,14.13
2022-09-18T05:01:42.723Z,7.75
2022-09-18T05:04:13.821Z,8.68
2022-09-18T05:07:01.920Z,10.75
2022-09-18T05:09:30.736Z,10.32
2022-09-18T05:11:59.708Z,10.80
2022-09-18T05:14:28.507Z,11.90
2022-09-18T05:17:02.018Z,9.02
2022-09-18T05:19:35.027Z,9.50
2022-09-18T05:22:09.959Z,10.25
2022-09-18T05:24:42.800Z,9.90
2022-09-18T05:27:11.413Z,12.10
2022-09-18T05:34:11.965Z,10.20
2022-09-18T05:36:43.037Z,10.85
2022-09-18T05:39:16.869Z,10.43
2022-09-18T05:41:51.176Z,9.50
2022-09-18T05:44:21.231Z,10.20
2022-09-18T05:46:50.979Z,8.48
2022-09-18T05:49:19.838Z,9.15
2022-09-18T05:51:48.426Z,8.73
2022-09-18T05:54:20.597Z,7.00
2022-09-18T05:56:50.780Z,8.15
2022-09-18T05:59:19.656Z,7.88
2022-09-18T06:01:50.310Z,11.20
2022-09-18T06:04:18.855Z,7.78
2022-09-18T06:07:07.529Z,10.75
2022-09-18T06:09:38.276Z,7.05
2022-09-18T06:12:07.743Z,7.45
2022-09-18T06:14:38.053Z,9.98
2022-09-18T06:17:06.895Z,6.78
2022-09-18T06:19:36.652Z,7.28
2022-09-18T06:22:05.609Z,6.35
2022-09-18T06:24:37.117Z,8.52
2022-09-18T06:27:11.518Z,7.10
2022-09-18T06:29:41.247Z,8.77
2022-09-18T06:32:13.011Z,9.85
2022-09-18T06:34:42.482Z,6.65
2022-09-18T06:37:15.107Z,6.57
2022-09-18T06:39:45.355Z,5.35
2022-09-18T06:42:37.189Z,12.52
2022-09-18T06:45:31.973Z,8.65
2022-09-18T06:48:04.804Z,11.80
2022-09-18T06:50:35.137Z,12.52
2022-09-18T06:53:10.108Z,11.45
2022-09-18T06:55:45.425Z,8.57
2022-09-18T06:58:14.251Z,7.55
2022-09-18T07:00:43.705Z,5.82
2022-09-18T07:03:13.344Z,11.80
2022-09-18T07:06:02.071Z,9.75
2022-09-18T07:08:51.214Z,7.10
2022-09-18T07:11:44.362Z,6.60
2022-09-18T07:14:13.104Z,9.52
2022-09-18T07:16:41.688Z,6.35
2022-09-18T07:19:10.554Z,6.90
2022-09-18T07:21:40.141Z,4.82
2022-09-18T07:24:09.615Z,5.35
2022-09-18T07:26:38.621Z,6.82
2022-09-18T07:29:10.831Z,7.25
2022-09-18T07:31:39.953Z,6.03
2022-09-18T07:34:12.882Z,5.70
2022-09-18T07:36:41.670Z,6.22
2022-09-18T07:39:10.323Z,7.90
2022-09-18T07:41:58.987Z,5.28
2022-09-18T07:44:30.699Z,8.95
2022-09-18T07:47:00.521Z,9.85
2022-09-18T07:49:31.042Z,6.07
2022-09-18T07:52:00.035Z,9.75
2022-09-18T07:54:29.848Z,6.15
2022-09-18T07:57:06.142Z,7.85
2022-09-18T07:59:48.128Z,8.90
2022-09-18T08:02:17.577Z,8.45
2022-09-18T08:04:46.304Z,7.07
2022-09-18T08:07:22.647Z,6.55
2022-09-18T08:10:12.057Z,6.45
2022-09-18T08:12:55.378Z,9.65
2022-09-18T08:15:25.613Z,5.03
2022-09-18T08:18:22.874Z,6.85
2022-09-18T08:21:10.764Z,4.93
2022-09-18T08:23:46.516Z,8.57
2022-09-18T08:26:20.116Z,5.05
2022-09-18T08:28:52.212Z,6.30
2022-09-18T08:31:23.141Z,5.90
2022-09-18T08:33:56.980Z,5.70
2022-09-18T08:36:27.141Z,5.45
2022-09-18T08:39:15.435Z,7.65
2022-09-18T08:42:25.736Z,8.25
2022-09-18T08:45:05.163Z,4.32
2022-09-18T08:47:45.757Z,4.20
2022-09-18T08:50:24.968Z,6.95
2022-09-18T08:53:05.130Z,6.13
2022-09-18T08:55:49.046Z,4.70
2022-09-18T08:58:53.076Z,9.80
2022-09-18T09:01:34.132Z,5.38
2022-09-18T09:04:19.764Z,5.65
2022-09-18T09:07:09.601Z,4.55
2022-09-18T09:10:04.942Z,7.90
2022-09-18T09:12:49.635Z,6.25
2022-09-18T09:15:48.558Z,6.32
2022-09-18T09:18:23.197Z,6.72
2022-09-18T09:20:56.989Z,3.83
2022-09-18T09:23:53.846Z,5.13
2022-09-18T09:26:44.259Z,4.05
2022-09-18T09:29:29.813Z,5.18
2022-09-18T09:32:10.304Z,4.63
2022-09-18T09:35:03.701Z,5.18
2022-09-18T09:37:45.340Z,5.07
2022-09-18T09:40:24.501Z,3.42
2022-09-18T09:43:02.586Z,3.70
2022-09-18T09:45:39.868Z,6.03
2022-09-18T09:48:20.126Z,4.00
2022-09-18T09:50:59.406Z,4.20
2022-09-18T09:53:30.112Z,3.78
2022-09-18T09:56:17.568Z,3.42
2022-09-18T09:58:57.802Z,4.45
2022-09-18T10:01:36.151Z,3.17
2022-09-18T10:04:22.489Z,4.25
2022-09-18T10:07:00.844Z,3.90
2022-09-18T10:09:45.442Z,6.43
2022-09-18T10:12:27.853Z,3.80
2022-09-18T10:15:16.136Z,6.03
2022-09-18T10:17:49.103Z,4.50
2022-09-18T10:20:26.533Z,2.83
2022-09-18T10:22:59.445Z,5.88
2022-09-18T10:25:36.709Z,4.15
2022-09-18T10:28:06.202Z,6.18
2022-09-18T10:30:35.743Z,4.30
2022-09-18T10:33:04.556Z,4.47
2022-09-18T10:35:45.824Z,3.75
2022-09-18T10:38:33.489Z,3.00
2022-09-18T10:41:32.139Z,3.10
2022-09-18T10:44:25.714Z,4.93
2022-09-18T10:47:08.296Z,3.85
2022-09-18T10:49:50.587Z,4.35
2022-09-18T10:52:36.106Z,4.80
2022-09-18T10:55:28.551Z,5.40
2022-09-18T10:58:16.352Z,5.68
2022-09-18T11:00:59.790Z,3.92
2022-09-18T11:03:40.705Z,4.13
2022-09-18T11:06:19.713Z,4.50
2022-09-18T11:08:53.794Z,3.92
2022-09-18T11:11:29.014Z,5.75
2022-09-18T11:14:05.151Z,6.95
2022-09-18T11:16:57.135Z,3.75
2022-09-18T11:19:31.049Z,5.22
2022-09-18T11:22:06.807Z,5.05
2022-09-18T11:24:47.422Z,3.38
2022-09-18T11:27:22.399Z,4.32
2022-09-18T11:30:17.506Z,2.55
2022-09-18T11:32:50.143Z,2.55
2022-09-18T11:35:23.921Z,4.85
2022-09-18T11:37:57.036Z,4.57
2022-09-18T11:40:31.754Z,3.78
2022-09-18T11:43:05.927Z,4.30
2022-09-18T11:45:50.915Z,4.20
2022-09-18T11:48:31.149Z,2.97
2022-09-18T11:51:05.319Z,2.17
2022-09-18T11:53:42.342Z,4.35
2022-09-18T11:56:20.049Z,2.90
2022-09-18T11:58:56.382Z,7.75
2022-09-18T12:01:34.683Z,6.13
2022-09-18T12:04:16.118Z,7.95
2022-09-18T12:06:58.627Z,2.35
2022-09-18T12:09:38.935Z,4.18
2022-09-18T12:12:14.806Z,2.55
2022-09-18T12:14:52.187Z,3.38
2022-09-18T12:17:39.553Z,3.97
2022-09-18T12:20:19.609Z,3.60
2022-09-18T12:22:54.978Z,4.40
2022-09-18T12:25:37.014Z,4.22
2022-09-18T12:28:46.714Z,4.38
2022-09-18T12:31:26.301Z,4.28
2022-09-18T12:34:04.463Z,4.25
2022-09-18T12:37:03.950Z,4.45
2022-09-18T12:40:04.256Z,2.55
2022-09-18T12:42:49.598Z,4.00
2022-09-18T12:45:59.656Z,3.35
2022-09-18T12:48:51.435Z,3.22
2022-09-18T12:51:40.048Z,2.85
2022-09-18T12:54:42.609Z,4.63
2022-09-18T12:57:40.806Z,5.47
2022-09-18T13:04:49.807Z,4.97
2022-09-18T13:07:29.083Z,3.17
2022-09-18T13:10:07.873Z,3.83
2022-09-18T13:12:43.731Z,4.53
2022-09-18T13:15:21.886Z,3.25
2022-09-18T13:17:59.176Z,5.97
2022-09-18T13:20:34.991Z,4.97
2022-09-18T13:23:07.054Z,6.88
2022-09-18T13:25:40.398Z,5.30
2022-09-18T13:28:15.395Z,4.32
2022-09-18T13:30:45.453Z,4.47
2022-09-18T13:33:25.345Z,6.18
2022-09-18T13:40:38.462Z,5.70
2022-09-18T13:43:42.086Z,5.35
2022-09-18T13:46:35.660Z,5.63
2022-09-18T13:49:20.749Z,8.00
2022-09-18T13:51:50.108Z,5.15
2022-09-18T13:54:26.495Z,6.78
2022-09-18T13:57:29.514Z,6.28
2022-09-18T14:00:01.869Z,5.78
2022-09-18T14:02:42.379Z,5.88
2022-09-18T14:05:32.566Z,5.65
2022-09-18T14:08:13.829Z,6.18
2022-09-18T14:15:26.563Z,4.38
2022-09-18T14:18:08.511Z,5.93
2022-09-18T14:20:37.203Z,5.28
2022-09-18T14:23:53.628Z,4.55
2022-09-18T14:27:23.377Z,5.13
2022-09-18T14:29:58.874Z,5.93
2022-09-18T14:32:29.376Z,5.57
2022-09-18T14:35:31.076Z,6.22
2022-09-18T14:37:59.713Z,6.65
2022-09-18T14:40:30.146Z,5.45
2022-09-18T14:42:58.824Z,6.15
2022-09-18T14:45:31.631Z,7.15
2022-09-18T14:48:23.524Z,5.55
2022-09-18T14:51:05.843Z,7.40
2022-09-18T14:53:45.062Z,7.72
2022-09-18T14:56:17.219Z,9.25
2022-09-18T14:58:50.530Z,7.45
2022-09-18T15:01:26.559Z,9.95
2022-09-18T15:03:59.373Z,9.93
2022-09-18T15:06:36.437Z,7.68
2022-09-18T15:09:09.411Z,8.52
2022-09-18T15:11:58.826Z,10.48
2022-09-18T15:14:41.838Z,8.18
2022-09-18T15:21:50.267Z,8.27
2022-09-18T15:24:19.892Z,7.35
2022-09-18T15:26:56.086Z,8.48
2022-09-18T15:29:31.021Z,5.88
2022-09-18T15:32:03.654Z,7.15
2022-09-18T15:34:41.060Z,6.28
2022-09-18T15:37:21.071Z,7.78
2022-09-18T15:40:03.898Z,5.88
2022-09-18T15:42:36.639Z,6.82
2022-09-18T15:45:21.827Z,7.38
2022-09-18T15:47:53.342Z,7.90
2022-09-18T15:50:42.286Z,5.15
2022-09-18T15:53:28.717Z,6.13
2022-09-18T15:56:02.501Z,5.32
2022-09-18T15:58:45.775Z,5.82
2022-09-18T16:01:23.554Z,5.15
2022-09-18T16:04:16.051Z,5.20
2022-09-18T16:06:55.556Z,4.97
2022-09-18T16:09:35.696Z,6.90
2022-09-18T16:12:39.899Z,4.40
2022-09-18T16:15:23.634Z,5.75
2022-09-18T16:18:20.650Z,5.47
2022-09-18T16:21:04.650Z,5.60
2022-09-18T16:23:36.337Z,6.55
2022-09-18T16:26:11.539Z,5.32
2022-09-18T16:28:45.332Z,5.18
2022-09-18T16:31:17.293Z,5.38
2022-09-18T16:33:57.269Z,5.32
2022-09-18T16:36:32.061Z,4.60
2022-09-18T16:39:03.499Z,5.78
2022-09-18T16:41:33.706Z,5.53
2022-09-18T16:44:05.845Z,4.25
2022-09-18T16:46:42.389Z,4.72
2022-09-18T16:49:13.157Z,4.85
2022-09-18T16:51:42.061Z,4.85
2022-09-18T16:54:10.778Z,5.10
2022-09-18T16:56:47.276Z,6.20
2022-09-18T16:59:19.017Z,5.35
2022-09-18T17:02:03.273Z,5.30
2022-09-18T17:04:33.877Z,6.28
2022-09-18T17:07:03.850Z,5.03
2022-09-18T17:09:33.203Z,4.80
2022-09-18T17:12:01.818Z,5.07
2022-09-18T17:14:32.241Z,6.97
2022-09-18T17:17:00.977Z,4.35
2022-09-18T17:19:30.578Z,5.22
2022-09-18T17:21:59.942Z,6.15
2022-09-18T17:24:28.555Z,4.72
2022-09-18T17:26:57.128Z,4.93
2022-09-18T17:29:26.093Z,5.90
2022-09-18T17:31:56.515Z,4.43
2022-09-18T17:34:25.324Z,4.78
2022-09-18T17:36:54.334Z,4.13
2022-09-18T17:39:23.468Z,4.43
2022-09-18T17:41:52.130Z,4.50
2022-09-18T17:44:20.853Z,4.20
2022-09-18T17:46:51.680Z,4.20
2022-09-18T17:49:22.058Z,5.55
2022-09-18T17:51:50.877Z,3.85
2022-09-18T17:54:19.481Z,5.72
2022-09-18T17:56:48.027Z,5.03
2022-09-18T17:59:17.337Z,4.93
2022-09-18T18:01:47.264Z,5.35
2022-09-18T18:04:16.603Z,4.53
2022-09-18T18:11:22.032Z,4.72
2022-09-18T18:13:53.477Z,4.07
2022-09-18T18:16:25.039Z,3.10
2022-09-18T18:18:57.216Z,2.75
2022-09-18T18:21:27.651Z,3.58
2022-09-18T18:23:58.003Z,3.20
2022-09-18T18:26:29.083Z,4.60
2022-09-18T18:28:58.489Z,5.47
2022-09-18T18:31:27.400Z,4.70
2022-09-18T18:33:58.016Z,5.35
2022-09-18T18:36:29.927Z,4.72
2022-09-18T18:39:01.234Z,4.32
2022-09-18T18:41:33.967Z,4.35
2022-09-18T18:44:05.691Z,7.75
2022-09-18T18:46:37.541Z,3.33
2022-09-18T18:49:10.189Z,4.93
2022-09-18T18:51:43.749Z,3.55
2022-09-18T18:54:14.010Z,4.40
2022-09-18T18:56:46.590Z,4.90
2022-09-18T18:59:18.245Z,5.43
2022-09-18T19:01:48.351Z,5.65
2022-09-18T19:04:19.946Z,5.32
2022-09-18T19:06:50.068Z,4.30
2022-09-18T19:09:22.849Z,7.50
2022-09-18T19:11:54.207Z,6.85
2022-09-18T19:14:25.461Z,6.50
2022-09-18T19:16:56.031Z,6.65
2022-09-18T19:19:28.412Z,7.22
2022-09-18T19:21:59.622Z,5.35
2022-09-18T19:24:30.053Z,9.55
2022-09-18T19:27:01.214Z,6.32
2022-09-18T19:29:31.640Z,8.40
2022-09-18T19:32:00.611Z,9.32
2022-09-18T19:34:29.317Z,8.18
2022-09-18T19:36:59.433Z,9.30
2022-09-18T19:39:28.625Z,8.05
2022-09-18T19:46:33.528Z,5.82
2022-09-18T19:49:02.399Z,5.47
2022-09-18T19:51:35.143Z,5.40
2022-09-18T19:58:36.659Z,12.70
2022-09-18T20:01:10.581Z,14.43
2022-09-18T20:08:12.522Z,6.82
2022-09-18T20:10:42.125Z,5.75
2022-09-18T20:13:13.198Z,6.13
2022-09-18T20:20:16.440Z,5.63
2022-09-18T20:22:45.618Z,7.57
2022-09-18T20:25:15.522Z,9.48
2022-09-18T20:27:44.147Z,7.25
2022-09-18T20:30:13.862Z,5.10
2022-09-18T20:32:42.790Z,5.28
2022-09-18T20:35:11.751Z,5.57
2022-09-18T20:37:40.641Z,5.68
2022-09-18T20:40:14.321Z,5.30
2022-09-18T20:42:44.525Z,5.07
2022-09-18T20:45:13.053Z,5.68
2022-09-18T20:47:41.712Z,6.07
2022-09-18T20:50:15.201Z,5.28
2022-09-18T20:52:45.354Z,7.82
2022-09-18T20:55:17.451Z,6.45
2022-09-18T20:57:47.759Z,6.10
2022-09-18T21:00:17.613Z,8.02
2022-09-18T21:02:53.332Z,7.38
2022-09-18T21:05:22.136Z,6.93
2022-09-18T21:07:57.209Z,6.82
2022-09-18T21:10:26.041Z,6.45
2022-09-18T21:12:56.019Z,8.48
2022-09-18T21:15:24.593Z,9.48
2022-09-18T21:17:53.641Z,10.20
2022-09-18T21:20:22.167Z,11.15
2022-09-18T21:23:08.456Z,10.75
2022-09-18T21:25:37.306Z,13.25
2022-09-18T21:28:07.197Z,9.68
2022-09-18T21:30:35.714Z,12.30
2022-09-18T21:33:04.630Z,9.93
2022-09-18T21:35:33.608Z,9.65
2022-09-18T21:38:03.536Z,7.53
2022-09-18T21:40:32.491Z,8.07
2022-09-18T21:43:01.483Z,6.85
2022-09-18T21:45:31.381Z,10.50
2022-09-18T21:48:00.070Z,9.27
2022-09-18T21:50:28.597Z,10.02
2022-09-18T21:52:57.145Z,8.63
2022-09-18T21:55:25.976Z,7.10
2022-09-18T21:57:55.705Z,10.13
2022-09-18T22:00:24.251Z,33.55
2022-09-18T22:02:54.802Z,18.17
2022-09-18T22:05:23.540Z,13.77
2022-09-18T22:07:56.343Z,12.52
2022-09-18T22:10:25.388Z,19.48
2022-09-18T22:12:54.820Z,15.07
2022-09-18T22:15:23.375Z,11.68
2022-09-18T22:17:52.494Z,13.07
2022-09-18T22:20:22.778Z,11.15
2022-09-18T22:22:51.275Z,9.70
2022-09-18T22:25:20.028Z,9.65
2022-09-18T22:27:48.566Z,10.30
2022-09-18T22:30:17.289Z,7.53
2022-09-18T22:32:46.018Z,7.75
2022-09-18T22:35:16.453Z,7.03
2022-09-18T22:37:46.447Z,7.70
2022-09-18T22:40:15.674Z,7.03
2022-09-18T22:42:44.321Z,8.25
2022-09-18T22:45:13.361Z,9.57
2022-09-18T22:47:42.109Z,7.80
2022-09-18T22:50:10.993Z,6.68
2022-09-18T22:52:39.515Z,5.32
2022-09-18T22:55:10.449Z,6.53
2022-09-18T22:57:38.980Z,9.43
2022-09-18T23:00:15.853Z,7.18
2022-09-18T23:02:45.383Z,7.43
2022-09-18T23:05:14.146Z,4.85
2022-09-18T23:07:42.733Z,7.50
2022-09-18T23:10:13.233Z,6.20
2022-09-18T23:12:41.791Z,7.75
2022-09-18T23:15:11.558Z,5.18
2022-09-18T23:17:40.913Z,8.15
2022-09-18T23:20:10.417Z,5.35
2022-09-18T23:22:39.059Z,5.40
2022-09-18T23:25:09.362Z,7.07
2022-09-18T23:27:39.215Z,7.32
2022-09-18T23:30:09.603Z,5.75
2022-09-18T23:32:38.469Z,5.95
2022-09-18T23:35:08.505Z,5.05
2022-09-18T23:37:37.042Z,7.20
2022-09-18T23:40:07.229Z,5.75
2022-09-18T23:42:35.776Z,6.45
2022-09-18T23:45:06.965Z,8.27
2022-09-18T23:47:38.128Z,4.13
2022-09-18T23:50:08.149Z,6.30
2022-09-18T23:52:36.875Z,5.95
2022-09-18T23:55:06.545Z,3.70
2022-09-18T23:57:35.984Z,5.32
